Time;durP1;ratioP1;P1;durP2;ratioP2;P2;SDS_P1;SDS_P2;PMS_P1;PMS_P2;Temp;Humidity;BMP_temperature;BMP_pressure;BME280_temperature;BME280_humidity;BME280_pressure;Samples;Min_cycle;Max_cycle;Signal;HPM_P1;HPM_P2
2022/01/23 00:00:19;;;;;;;12.87;8.23;;;;;;;5.09;94.73;102513.78;5044617;28;20233;-71
2022/01/23 00:02:46;;;;;;;11.07;8.07;;;;;;;5.10;94.81;102510.25;5043657;28;20251;-72
2022/01/23 00:05:15;;;;;;;13.87;8.90;;;;;;;5.09;94.84;102513.78;5041817;28;20300;-71
2022/01/23 00:07:43;;;;;;;14.07;8.53;;;;;;;5.09;94.78;102511.13;5041535;28;20758;-70
2022/01/23 00:10:11;;;;;;;13.10;8.17;;;;;;;5.07;95.18;102504.97;5048608;28;20240;-71
2022/01/23 00:12:44;;;;;;;10.03;7.03;;;;;;;5.08;95.12;102518.19;5042903;28;20296;-69
2022/01/23 00:17:55;;;;;;;11.77;6.43;;;;;;;5.08;95.14;102519.94;5049245;28;20259;-71
2022/01/23 00:20:23;;;;;;;10.27;6.93;;;;;;;5.07;95.09;102516.41;5045989;28;20702;-71
2022/01/23 00:22:52;;;;;;;11.83;6.33;;;;;;;5.08;95.28;102514.66;5045197;28;20663;-71
2022/01/23 00:30:50;;;;;;;10.27;6.23;;;;;;;5.05;95.04;102509.41;5042565;28;20229;-71
2022/01/23 00:33:17;;;;;;;7.47;5.30;;;;;;;5.04;95.35;102510.28;5044953;28;20718;-72
2022/01/23 00:35:47;;;;;;;9.03;5.07;;;;;;;5.03;95.41;102511.19;5047335;28;20232;-71
2022/01/23 00:38:14;;;;;;;8.53;5.73;;;;;;;5.02;95.27;102510.31;5042811;28;20206;-72
2022/01/23 00:40:44;;;;;;;11.17;6.30;;;;;;;5.03;95.49;102513.81;5040814;28;20239;-71
2022/01/23 00:43:16;;;;;;;8.17;5.90;;;;;;;5.02;95.46;102512.94;5044262;28;20212;-72
2022/01/23 00:45:46;;;;;;;13.10;6.77;;;;;;;5.01;95.22;102505.94;5043520;28;20912;-71
2022/01/23 00:48:14;;;;;;;11.80;6.13;;;;;;;5.04;95.37;102502.38;5043726;28;20212;-71
2022/01/23 00:50:45;;;;;;;8.30;5.87;;;;;;;5.04;95.61;102512.94;5040792;28;20683;-71
2022/01/23 00:53:13;;;;;;;9.77;6.60;;;;;;;5.04;95.93;102510.28;5039457;28;20576;-71
2022/01/23 00:55:43;;;;;;;12.13;6.60;;;;;;;5.04;95.82;102518.22;5041046;28;20229;-71
2022/01/23 00:58:10;;;;;;;11.90;6.47;;;;;;;5.04;95.66;102512.94;5041482;28;20217;-71
2022/01/23 01:00:37;;;;;;;10.13;6.23;;;;;;;5.05;95.79;102522.59;5041566;28;20234;-71
2022/01/23 01:03:04;;;;;;;8.13;5.57;;;;;;;5.04;95.88;102512.94;5043900;28;20220;-71
2022/01/23 01:05:30;;;;;;;9.73;6.00;;;;;;;5.03;96.00;102512.06;5044695;28;20210;-72
2022/01/23 01:07:59;;;;;;;7.47;5.40;;;;;;;5.03;96.07;102511.19;5042753;28;20194;-72
2022/01/23 01:10:33;;;;;;;10.73;5.60;;;;;;;5.03;96.01;102516.47;5048476;28;20703;-72
2022/01/23 01:13:02;;;;;;;9.43;5.50;;;;;;;5.03;95.99;102514.69;5047816;28;20575;-72
2022/01/23 01:15:38;;;;;;;10.33;5.43;;;;;;;5.02;95.81;102518.22;5049459;28;20235;-71
2022/01/23 01:31:50;;;;;;;8.97;5.90;;;;;;;4.97;96.21;102520.06;4987345;28;20269;-72
2022/01/23 01:34:22;;;;;;;13.30;6.10;;;;;;;4.97;96.04;102525.34;4994619;28;20314;-72
2022/01/23 01:36:50;;;;;;;12.47;6.03;;;;;;;4.97;96.42;102524.47;4997846;28;20301;-70
2022/01/23 01:39:20;;;;;;;9.47;5.80;;;;;;;4.95;96.05;102524.47;5006004;28;20306;-72
2022/01/23 01:41:46;;;;;;;8.20;5.80;;;;;;;4.96;96.25;102526.25;4982358;28;20237;-71
2022/01/23 01:44:15;;;;;;;9.70;6.37;;;;;;;4.94;96.33;102525.38;5000404;28;20203;-71
2022/01/23 01:46:43;;;;;;;10.23;6.27;;;;;;;4.96;96.40;102522.72;4991241;28;20207;-72
2022/01/23 01:49:10;;;;;;;10.00;6.83;;;;;;;4.93;96.47;102528.03;4991024;28;20232;-71
2022/01/23 01:51:37;;;;;;;12.60;7.60;;;;;;;4.92;96.63;102526.28;4995401;28;20202;-71
2022/01/23 01:54:11;;;;;;;13.23;7.20;;;;;;;4.91;96.30;102535.09;4995586;28;20211;-71
2022/01/23 01:56:47;;;;;;;12.07;7.50;;;;;;;4.91;96.70;102533.31;4998085;28;20653;-72
2022/01/23 01:59:46;;;;;;;9.93;7.03;;;;;;;4.91;96.77;102545.66;5008733;28;20230;-72
2022/01/23 02:10:22;;;;;;;14.27;8.00;;;;;;;4.87;96.64;102540.38;4994269;28;20253;-71
2022/01/23 02:13:08;;;;;;;12.63;7.73;;;;;;;4.87;96.32;102540.38;4994687;28;20219;-72
2022/01/23 02:18:43;;;;;;;11.87;8.47;;;;;;;4.83;96.07;102536.06;5006951;28;20239;-72
2022/01/23 02:24:09;;;;;;;12.47;8.03;;;;;;;4.79;96.50;102542.25;5002874;28;20215;-72
2022/01/23 02:51:41;;;;;;;10.53;7.20;;;;;;;4.61;96.26;102520.41;5008381;28;20266;-71
2022/01/23 02:54:26;;;;;;;10.27;6.50;;;;;;;4.56;96.29;102528.38;4995060;28;20715;-72
2022/01/23 02:56:56;;;;;;;9.83;6.93;;;;;;;4.54;95.87;102527.50;4996557;28;20204;-72
2022/01/23 02:59:25;;;;;;;10.77;6.33;;;;;;;4.51;96.35;102540.72;4999053;28;20216;-71
2022/01/23 03:02:05;;;;;;;10.77;7.03;;;;;;;4.47;96.43;102539.91;4986337;28;20207;-71
2022/01/23 03:04:35;;;;;;;9.50;7.00;;;;;;;4.45;96.31;102544.31;4999041;28;20287;-71
2022/01/23 03:07:15;;;;;;;9.10;6.37;;;;;;;4.42;95.77;102535.53;4999798;28;20214;-71
2022/01/23 03:09:58;;;;;;;9.00;6.53;;;;;;;4.41;96.03;102533.78;5002418;28;20207;-70
2022/01/23 03:15:15;;;;;;;10.97;6.03;;;;;;;4.38;96.14;102533.78;4982777;28;20293;-71
2022/01/23 03:26:14;;;;;;;10.53;6.30;;;;;;;4.38;96.63;102541.72;5002717;28;20210;-71
2022/01/23 03:29:02;;;;;;;9.63;6.07;;;;;;;4.38;96.51;102539.94;4992292;28;20227;-71
2022/01/23 03:31:33;;;;;;;7.80;5.97;;;;;;;4.39;96.65;102536.44;5001302;28;20238;-70
2022/01/23 03:34:00;;;;;;;7.23;5.07;;;;;;;4.39;96.38;102535.53;5002912;28;20289;-71
2022/01/23 03:36:27;;;;;;;9.57;6.47;;;;;;;4.39;96.40;102538.19;4991969;28;20223;-71
2022/01/23 03:38:53;;;;;;;9.93;5.63;;;;;;;4.40;96.25;102538.19;4991153;28;20227;-71
2022/01/23 03:41:21;;;;;;;8.07;6.13;;;;;;;4.40;96.73;102534.66;5009076;28;20218;-71
2022/01/23 03:43:48;;;;;;;9.27;5.37;;;;;;;4.40;96.67;102538.19;4998868;28;20208;-71
2022/01/23 03:46:36;;;;;;;9.80;5.77;;;;;;;4.42;96.70;102541.69;4992487;28;20294;-71
2022/01/23 03:51:48;;;;;;;7.03;5.03;;;;;;;4.43;96.50;102539.91;4990447;28;20349;-71
2022/01/23 03:54:15;;;;;;;7.30;5.23;;;;;;;4.44;96.89;102541.66;4992009;28;20215;-71
2022/01/23 03:56:43;;;;;;;6.47;5.17;;;;;;;4.44;96.67;102545.19;4995206;28;20595;-71
2022/01/23 03:59:09;;;;;;;8.10;4.93;;;;;;;4.45;96.57;102546.06;4992177;28;20231;-72
2022/01/23 04:01:36;;;;;;;6.67;4.70;;;;;;;4.44;96.76;102526.72;4991586;28;20210;-72
2022/01/23 04:04:09;;;;;;;7.53;4.20;;;;;;;4.46;97.01;102537.25;4992205;28;20207;-71
2022/01/23 04:06:35;;;;;;;9.97;5.20;;;;;;;4.45;96.82;102539.03;4981045;28;20237;-71
2022/01/23 04:09:02;;;;;;;4.70;3.33;;;;;;;4.46;96.65;102539.91;4997420;28;20219;-71
2022/01/23 04:11:28;;;;;;;5.93;3.87;;;;;;;4.46;97.08;102532.00;4992477;28;20203;-73
2022/01/23 04:14:02;;;;;;;8.07;4.67;;;;;;;4.48;96.54;102540.72;4990794;28;20214;-70
2022/01/23 04:16:47;;;;;;;6.40;4.20;;;;;;;4.45;96.80;102541.66;4991408;28;20589;-71
2022/01/23 04:19:35;;;;;;;6.60;3.40;;;;;;;4.45;96.54;102543.44;4990584;28;20239;-71
2022/01/23 04:33:25;;;;;;;5.83;3.73;;;;;;;4.43;96.64;102556.63;4990420;28;20327;-71
2022/01/23 05:00:51;;;;;;;9.60;4.87;;;;;;;4.41;96.22;102557.53;4992135;28;20580;-72
2022/01/23 05:03:45;;;;;;;7.73;4.87;;;;;;;4.41;96.66;102554.88;4990150;28;20756;-71
2022/01/23 05:06:21;;;;;;;7.00;4.73;;;;;;;4.41;96.40;102554.88;4987200;28;20612;-71
2022/01/23 05:08:47;;;;;;;7.50;5.07;;;;;;;4.39;96.18;102557.53;4991131;28;20226;-71
2022/01/23 05:11:14;;;;;;;6.57;5.13;;;;;;;4.41;96.75;102561.03;4990604;28;20203;-71
2022/01/23 05:13:41;;;;;;;7.97;6.03;;;;;;;4.41;96.53;102561.03;4999479;28;20199;-72
2022/01/23 05:16:09;;;;;;;7.37;5.30;;;;;;;4.40;96.80;102569.84;4996332;28;20232;-71
2022/01/23 05:18:37;;;;;;;8.03;5.43;;;;;;;4.42;96.39;102570.69;4991408;28;20276;-72
2022/01/23 05:21:15;;;;;;;8.43;6.33;;;;;;;4.42;96.48;102567.19;4989408;28;20788;-71
2022/01/23 05:23:42;;;;;;;7.77;5.77;;;;;;;4.42;96.53;102577.75;4993401;28;20630;-71
2022/01/23 05:26:08;;;;;;;8.23;5.33;;;;;;;4.42;96.32;102580.38;4990724;28;20203;-72
2022/01/23 05:28:35;;;;;;;7.40;5.80;;;;;;;4.43;96.65;102587.41;4990541;28;20226;-70
2022/01/23 05:31:01;;;;;;;10.33;6.13;;;;;;;4.44;95.98;102595.31;4989564;28;20677;-70
2022/01/23 05:33:28;;;;;;;10.23;5.77;;;;;;;4.42;96.13;102583.88;4994769;28;20203;-72
2022/01/23 05:35:56;;;;;;;10.03;6.33;;;;;;;4.42;96.28;102583.00;4990106;28;20231;-71
2022/01/23 05:38:22;;;;;;;10.27;5.93;;;;;;;4.43;96.10;102587.41;4990089;28;20231;-72
2022/01/23 05:40:55;;;;;;;9.13;5.67;;;;;;;4.41;96.23;102582.13;4990725;28;20208;-71
2022/01/23 05:43:22;;;;;;;8.50;6.27;;;;;;;4.42;96.00;102594.44;5001136;28;20217;-71
2022/01/23 05:45:49;;;;;;;10.70;6.40;;;;;;;4.43;96.45;102587.41;4998525;28;20685;-70
2022/01/23 05:48:15;;;;;;;9.57;6.17;;;;;;;4.41;96.14;102597.09;5008705;28;20281;-70
2022/01/23 05:50:42;;;;;;;9.20;5.90;;;;;;;4.42;96.61;102593.56;4993685;28;20673;-71
2022/01/23 05:53:10;;;;;;;8.53;6.17;;;;;;;4.41;96.22;102591.81;5008754;28;20215;-71
2022/01/23 05:55:37;;;;;;;7.83;5.83;;;;;;;4.41;96.64;102594.44;4989129;28;20235;-70
2022/01/23 05:58:04;;;;;;;7.83;5.83;;;;;;;4.43;96.01;102600.59;4987260;28;20704;-71
2022/01/23 06:00:31;;;;;;;12.00;8.30;;;;;;;4.42;96.12;102601.47;4989389;28;20207;-72
2022/01/23 06:02:57;;;;;;;11.03;7.23;;;;;;;4.42;96.38;102599.72;5003696;28;20214;-71
2022/01/23 06:05:24;;;;;;;17.10;11.77;;;;;;;4.43;96.29;102596.19;4989472;28;20374;-71
2022/01/23 06:07:51;;;;;;;25.93;17.27;;;;;;;4.44;96.27;102594.44;4993154;28;20227;-72
2022/01/23 06:10:23;;;;;;;9.53;6.83;;;;;;;4.44;96.64;102597.06;4988741;28;20566;-71
2022/01/23 06:12:50;;;;;;;12.70;8.80;;;;;;;4.44;96.75;102595.31;4998022;28;20681;-71
2022/01/23 06:15:17;;;;;;;18.07;12.73;;;;;;;4.45;96.45;102598.81;4993047;28;20235;-70
2022/01/23 06:17:44;;;;;;;7.80;5.60;;;;;;;4.44;96.17;102589.16;4996939;28;20231;-72
2022/01/23 06:20:13;;;;;;;7.87;4.87;;;;;;;4.43;96.38;102592.69;4994346;28;20204;-72
2022/01/23 06:22:42;;;;;;;6.20;4.37;;;;;;;4.43;96.62;102592.69;4995967;28;20674;-72
2022/01/23 06:25:12;;;;;;;6.23;4.40;;;;;;;4.42;96.85;102599.72;4988933;28;20294;-70
2022/01/23 06:27:40;;;;;;;5.47;4.30;;;;;;;4.42;96.46;102599.72;4990196;28;20231;-72
2022/01/23 06:30:07;;;;;;;4.93;3.97;;;;;;;4.43;96.35;102598.84;4993800;28;20207;-71
2022/01/23 06:32:34;;;;;;;4.60;3.43;;;;;;;4.44;96.36;102602.34;4991977;28;20215;-72
2022/01/23 06:35:01;;;;;;;6.57;4.23;;;;;;;4.44;96.79;102611.16;4990710;28;20218;-72
2022/01/23 06:37:27;;;;;;;5.57;3.83;;;;;;;4.45;96.79;102614.66;4993280;28;20226;-72
2022/01/23 06:39:54;;;;;;;5.37;4.10;;;;;;;4.46;96.69;102616.41;5000666;28;20207;-72
2022/01/23 06:42:20;;;;;;;8.40;5.13;;;;;;;4.45;96.22;102617.28;4994341;28;20211;-71
2022/01/23 06:44:48;;;;;;;7.67;4.30;;;;;;;4.46;96.88;102619.94;5000030;28;20208;-72
2022/01/23 06:47:15;;;;;;;8.13;5.23;;;;;;;4.48;96.63;102630.44;5004763;28;20362;-73
2022/01/23 06:49:41;;;;;;;8.63;6.60;;;;;;;4.47;96.39;102634.00;4996231;28;20947;-71
2022/01/23 06:52:09;;;;;;;9.40;6.37;;;;;;;4.46;96.66;102630.47;5000289;28;20204;-72
2022/01/23 06:54:35;;;;;;;11.43;8.17;;;;;;;4.47;96.29;102634.00;4992924;28;20200;-72
2022/01/23 06:57:02;;;;;;;12.20;6.77;;;;;;;4.47;96.49;102623.44;4992992;28;20247;-72
2022/01/23 06:59:28;;;;;;;8.90;7.17;;;;;;;4.48;96.28;102630.44;5001359;28;20213;-72
2022/01/23 07:01:57;;;;;;;9.40;6.57;;;;;;;4.47;96.33;102624.31;4992454;28;20214;-72
2022/01/23 07:04:23;;;;;;;9.70;6.27;;;;;;;4.47;96.45;102631.34;5008114;28;20739;-72
2022/01/23 07:06:51;;;;;;;10.27;6.50;;;;;;;4.48;96.91;102627.81;4992973;28;20200;-72
2022/01/23 07:09:18;;;;;;;9.93;6.20;;;;;;;4.47;96.40;102637.50;4999651;28;20239;-72
2022/01/23 07:11:45;;;;;;;10.30;6.20;;;;;;;4.48;96.37;102635.72;4997287;28;20208;-73
2022/01/23 07:14:12;;;;;;;11.00;6.67;;;;;;;4.48;96.69;102633.09;4998200;28;20211;-72
2022/01/23 07:16:38;;;;;;;9.37;6.50;;;;;;;4.48;96.71;102636.59;4990326;28;20235;-72
2022/01/23 07:19:06;;;;;;;8.00;5.53;;;;;;;4.48;96.44;102643.63;4993843;28;20242;-73
2022/01/23 07:21:33;;;;;;;8.17;6.30;;;;;;;4.48;96.77;102636.59;5003948;28;20208;-72
2022/01/23 07:23:59;;;;;;;8.80;6.17;;;;;;;4.47;96.71;102647.19;5002523;28;20302;-73
2022/01/23 07:26:27;;;;;;;9.27;5.70;;;;;;;4.47;96.39;102649.81;4995288;28;20203;-72
2022/01/23 07:28:57;;;;;;;7.20;5.50;;;;;;;4.48;96.93;102656.81;4991848;28;20709;-73
2022/01/23 07:31:43;;;;;;;7.47;4.77;;;;;;;4.47;96.97;102653.34;4998643;28;20203;-72
2022/01/23 07:34:13;;;;;;;6.00;4.23;;;;;;;4.47;96.68;102652.47;4998719;28;20689;-72
2022/01/23 07:36:40;;;;;;;6.37;4.60;;;;;;;4.48;96.96;102656.81;4983841;28;20224;-73
2022/01/23 07:39:07;;;;;;;8.00;4.60;;;;;;;4.47;96.73;102655.97;5009058;28;20643;-72
2022/01/23 07:41:34;;;;;;;8.87;4.37;;;;;;;4.48;96.69;102656.81;4991617;28;20211;-72
2022/01/23 07:44:00;;;;;;;7.13;4.70;;;;;;;4.49;97.25;102669.13;4998290;28;20214;-73
2022/01/23 07:46:28;;;;;;;7.50;5.50;;;;;;;4.48;97.09;102668.25;4997097;28;20657;-72
2022/01/23 07:48:54;;;;;;;7.80;5.57;;;;;;;4.49;97.21;102669.13;5004433;28;20235;-72
2022/01/23 07:51:22;;;;;;;8.47;5.10;;;;;;;4.49;97.13;102664.72;4992131;28;20208;-72
2022/01/23 07:53:49;;;;;;;8.50;5.70;;;;;;;4.50;97.26;102665.63;4992362;28;20211;-71
2022/01/23 07:56:15;;;;;;;7.70;4.93;;;;;;;4.50;97.20;102663.84;4992278;28;20708;-73
2022/01/23 07:58:42;;;;;;;7.57;5.00;;;;;;;4.51;97.27;102662.97;5000888;28;20227;-72
2022/01/23 08:01:09;;;;;;;8.00;5.30;;;;;;;4.54;97.17;102672.63;4997978;28;20665;-72
2022/01/23 08:03:36;;;;;;;7.83;4.57;;;;;;;4.55;97.57;102674.38;4998212;28;20692;-72
2022/01/23 08:06:04;;;;;;;8.77;4.93;;;;;;;4.56;97.84;102680.53;5000563;28;20230;-72
2022/01/23 08:08:32;;;;;;;9.50;4.80;;;;;;;4.58;97.43;102679.66;4997293;28;20258;-72
2022/01/23 08:10:58;;;;;;;10.87;6.60;;;;;;;4.59;97.69;102681.41;4997556;28;20601;-73
2022/01/23 08:13:25;;;;;;;9.83;7.30;;;;;;;4.60;97.59;102672.59;4995947;28;20199;-72
2022/01/23 08:15:52;;;;;;;9.27;6.83;;;;;;;4.62;97.67;102680.50;4994581;28;20227;-72
2022/01/23 08:18:18;;;;;;;13.30;8.83;;;;;;;4.61;97.75;102671.72;4993728;28;20241;-72
2022/01/23 08:20:45;;;;;;;15.50;7.73;;;;;;;4.61;97.81;102679.63;4998227;28;20206;-72
2022/01/23 08:23:12;;;;;;;14.53;7.70;;;;;;;4.62;97.96;102686.66;5007313;28;20588;-72
2022/01/23 08:25:40;;;;;;;9.67;7.40;;;;;;;4.65;98.27;102699.84;4999323;28;20203;-71
2022/01/23 08:28:08;;;;;;;9.20;7.03;;;;;;;4.66;98.11;102698.09;4991208;28;20720;-72
2022/01/23 08:30:35;;;;;;;12.37;8.70;;;;;;;4.66;97.90;102698.09;4996091;28;20207;-72
2022/01/23 08:33:01;;;;;;;8.60;6.77;;;;;;;4.67;98.08;102695.41;5000828;28;20203;-72
2022/01/23 08:35:28;;;;;;;12.33;10.47;;;;;;;4.68;97.83;102705.09;4993820;28;20468;-71
2022/01/23 08:37:55;;;;;;;8.37;6.97;;;;;;;4.69;97.78;102709.47;4991844;28;20234;-72
2022/01/23 08:40:34;;;;;;;10.00;7.63;;;;;;;4.71;97.94;102710.34;4992442;28;20204;-72
2022/01/23 08:43:02;;;;;;;8.93;6.60;;;;;;;4.72;98.34;102713.88;4995445;28;20204;-71
2022/01/23 08:45:28;;;;;;;9.07;6.93;;;;;;;4.74;98.61;102709.47;4991658;28;20196;-71
2022/01/23 08:47:55;;;;;;;6.93;5.50;;;;;;;4.75;98.45;102714.72;5000731;28;20222;-71
2022/01/23 08:50:21;;;;;;;7.27;4.77;;;;;;;4.77;98.63;102710.31;4993777;28;20219;-72
2022/01/23 08:52:48;;;;;;;7.47;5.00;;;;;;;4.79;98.31;102705.91;4995055;28;20199;-70
2022/01/23 08:55:14;;;;;;;8.10;5.60;;;;;;;4.81;98.60;102711.19;4996072;28;20593;-72
2022/01/23 08:57:41;;;;;;;6.47;5.23;;;;;;;4.84;98.37;102711.13;4994923;28;20227;-72
2022/01/23 09:00:10;;;;;;;7.37;4.50;;;;;;;4.85;98.33;102715.53;4998479;28;20681;-72
2022/01/23 09:02:37;;;;;;;6.93;4.90;;;;;;;4.86;98.61;102714.66;4991572;28;20670;-72
2022/01/23 09:05:04;;;;;;;6.30;4.43;;;;;;;4.87;98.76;102734.88;4994509;28;20214;-73
2022/01/23 09:07:30;;;;;;;8.03;5.20;;;;;;;4.88;98.92;102728.72;4992044;28;20821;-72
2022/01/23 09:10:01;;;;;;;6.27;4.50;;;;;;;4.89;98.64;102723.44;4998169;28;20203;-72
2022/01/23 09:12:42;;;;;;;8.37;4.30;;;;;;;4.91;98.77;102726.06;4995947;28;20286;-72
2022/01/23 09:15:11;;;;;;;5.73;3.73;;;;;;;4.93;98.61;102723.41;4993976;28;20748;-72
2022/01/23 09:17:38;;;;;;;5.17;3.40;;;;;;;4.94;99.12;102725.16;4990340;28;20235;-72
2022/01/23 09:20:05;;;;;;;5.83;3.77;;;;;;;4.96;98.76;102728.69;5000557;28;20213;-71
2022/01/23 09:22:31;;;;;;;5.40;3.73;;;;;;;4.96;98.76;102721.63;4992077;28;20586;-72
2022/01/23 09:25:00;;;;;;;5.67;4.00;;;;;;;4.97;98.89;102725.16;4990058;28;20214;-72
2022/01/23 09:27:26;;;;;;;6.23;3.77;;;;;;;5.00;99.63;102726.00;4991990;28;20309;-72
2022/01/23 09:29:55;;;;;;;4.80;3.60;;;;;;;5.02;98.76;102718.03;4990557;28;20212;-72
2022/01/23 09:32:24;;;;;;;7.47;3.77;;;;;;;5.03;98.69;102719.81;4989935;28;20586;-72
2022/01/23 09:34:52;;;;;;;6.73;3.40;;;;;;;5.05;99.24;102723.31;4991245;28;20223;-73
2022/01/23 09:37:20;;;;;;;4.30;3.20;;;;;;;5.07;99.14;102721.53;4996694;28;21358;-72
2022/01/23 09:39:49;;;;;;;6.07;4.20;;;;;;;5.08;99.39;102721.53;4995480;28;20598;-73
2022/01/23 09:42:20;;;;;;;5.53;3.67;;;;;;;5.11;99.16;102718.00;4994233;28;20211;-72
2022/01/23 09:44:50;;;;;;;6.27;4.57;;;;;;;5.12;99.27;102720.63;4992224;28;20617;-73
2022/01/23 09:47:19;;;;;;;6.73;3.97;;;;;;;5.14;99.47;102721.50;4992768;28;20208;-71
2022/01/23 09:49:48;;;;;;;6.70;4.20;;;;;;;5.15;99.39;102725.00;4987528;28;20254;-73
2022/01/23 09:52:15;;;;;;;6.03;4.50;;;;;;;5.15;99.47;102717.97;4989953;28;20214;-72
2022/01/23 09:54:45;;;;;;;6.00;4.00;;;;;;;5.18;99.56;102714.44;4994967;28;20219;-72
2022/01/23 09:57:13;;;;;;;7.47;4.37;;;;;;;5.20;99.44;102717.91;4987794;28;20231;-72
2022/01/23 09:59:40;;;;;;;4.90;3.73;;;;;;;5.23;99.87;102723.16;4983486;28;20216;-73
2022/01/23 10:02:08;;;;;;;5.37;3.77;;;;;;;5.25;99.81;102726.69;4979130;28;20212;-73
2022/01/23 10:04:35;;;;;;;7.03;4.20;;;;;;;5.26;99.64;102720.50;4977022;28;20208;-72
2022/01/23 10:07:07;;;;;;;8.43;4.93;;;;;;;5.27;99.93;102718.75;4983879;28;20204;-72
2022/01/23 10:09:35;;;;;;;7.10;4.80;;;;;;;5.30;99.91;102724.88;4994322;28;20259;-72
2022/01/23 10:12:02;;;;;;;8.33;4.13;;;;;;;5.31;99.90;102729.28;4990172;28;20204;-70
2022/01/23 10:14:29;;;;;;;5.77;3.63;;;;;;;5.34;99.85;102733.66;4989018;28;20214;-72
2022/01/23 10:16:55;;;;;;;6.43;4.23;;;;;;;5.36;100.00;102730.13;4987250;28;20222;-72
2022/01/23 10:19:22;;;;;;;6.47;4.80;;;;;;;5.38;100.00;102728.31;4987953;28;20235;-72
2022/01/23 10:21:49;;;;;;;7.33;4.50;;;;;;;5.40;100.00;102734.47;4985254;28;20200;-72
2022/01/23 10:24:17;;;;;;;6.87;4.30;;;;;;;5.44;100.00;102735.31;4987059;28;20318;-72
2022/01/23 10:26:47;;;;;;;5.83;4.47;;;;;;;5.45;100.00;102724.75;4995115;28;20214;-72
2022/01/23 10:29:16;;;;;;;6.83;4.27;;;;;;;5.47;100.00;102716.81;4990032;28;20230;-72
2022/01/23 10:32:11;;;;;;;8.03;4.63;;;;;;;5.49;100.00;102715.91;4996388;28;20211;-72
2022/01/23 10:34:47;;;;;;;7.70;5.10;;;;;;;5.51;100.00;102722.06;4939202;28;20686;-72
2022/01/23 10:37:26;;;;;;;5.80;4.63;;;;;;;5.54;100.00;102719.38;4989649;28;20228;-71
2022/01/23 10:39:54;;;;;;;7.77;4.70;;;;;;;5.58;100.00;102722.84;4994513;28;20200;-73
2022/01/23 10:42:49;;;;;;;6.50;4.70;;;;;;;5.62;100.00;102721.94;4983997;28;20226;-72
2022/01/23 10:48:34;;;;;;;6.83;5.33;;;;;;;5.68;100.00;102728.94;4990806;28;20593;-71
2022/01/23 10:51:18;;;;;;;6.70;4.87;;;;;;;5.69;100.00;102721.00;4995207;28;20231;-72
2022/01/23 10:54:04;;;;;;;6.43;4.87;;;;;;;5.71;100.00;102731.56;4992267;28;20577;-72
2022/01/23 10:56:33;;;;;;;9.20;5.87;;;;;;;5.73;100.00;102727.13;4984206;28;20851;-72
2022/01/23 10:59:02;;;;;;;7.47;4.60;;;;;;;5.73;100.00;102735.91;4987563;28;20227;-71
2022/01/23 11:01:29;;;;;;;8.27;5.30;;;;;;;5.74;100.00;102734.16;4987853;28;20207;-72
2022/01/23 11:04:08;;;;;;;7.83;5.90;;;;;;;5.76;100.00;102735.88;4996118;28;20211;-71
2022/01/23 11:06:51;;;;;;;6.23;4.77;;;;;;;5.75;100.00;102720.91;4993584;28;20218;-70
2022/01/23 11:09:17;;;;;;;7.13;5.23;;;;;;;5.76;100.00;102730.59;4994274;28;20223;-72
2022/01/23 11:11:48;;;;;;;6.33;4.73;;;;;;;5.78;100.00;102733.22;4989001;28;20624;-72
2022/01/23 11:19:46;;;;;;;7.40;5.17;;;;;;;5.78;100.00;102722.66;4990562;28;20237;-72
2022/01/23 11:22:18;;;;;;;7.07;4.53;;;;;;;5.79;99.62;102730.56;4990835;28;20216;-73
2022/01/23 11:24:47;;;;;;;6.63;4.67;;;;;;;5.78;99.76;102720.88;4993976;28;20226;-72
2022/01/23 11:27:17;;;;;;;7.20;4.73;;;;;;;5.80;99.86;102726.16;4986043;28;20219;-71
2022/01/23 11:29:58;;;;;;;7.97;5.03;;;;;;;5.83;100.00;102726.13;4994667;28;20214;-72
2022/01/23 11:32:29;;;;;;;6.70;4.87;;;;;;;5.83;99.70;102719.09;4985888;28;20215;-72
2022/01/23 11:35:05;;;;;;;9.03;4.80;;;;;;;5.83;99.97;102724.38;4992907;28;20616;-72
2022/01/23 11:37:34;;;;;;;9.20;5.47;;;;;;;5.85;99.84;102713.78;4989700;28;20234;-72
2022/01/23 11:40:06;;;;;;;8.67;4.80;;;;;;;5.85;99.94;102719.94;4991831;28;20574;-71
2022/01/23 11:51:18;;;;;;;7.40;5.60;;;;;;;5.91;99.75;102714.59;4990121;28;20215;-72
2022/01/23 11:53:53;;;;;;;10.73;6.67;;;;;;;5.93;99.33;102722.53;4996006;28;20298;-72
2022/01/23 11:56:45;;;;;;;8.07;5.53;;;;;;;5.96;99.52;102725.13;4984855;28;20240;-73
2022/01/23 11:59:22;;;;;;;8.67;5.40;;;;;;;5.96;99.70;102730.44;4984544;28;20263;-72
2022/01/23 12:02:29;;;;;;;6.93;5.17;;;;;;;5.97;99.22;102724.25;4979720;28;20638;-72
2022/01/23 12:05:32;;;;;;;7.70;5.70;;;;;;;6.00;99.48;102720.69;4984966;28;20207;-72
2022/01/23 12:08:36;;;;;;;5.80;4.97;;;;;;;6.02;99.53;102721.56;4982743;28;20229;-72
2022/01/23 12:11:42;;;;;;;8.87;5.23;;;;;;;6.03;99.69;102724.19;4983484;28;20206;-72
2022/01/23 12:17:43;;;;;;;6.63;5.43;;;;;;;6.07;99.46;102711.81;4984101;28;20306;-76
2022/01/23 12:20:11;;;;;;;8.70;5.33;;;;;;;6.07;99.53;102701.22;4984679;28;20270;-75
2022/01/23 12:22:55;;;;;;;10.47;8.07;;;;;;;6.07;99.14;102704.75;4986386;28;20204;-76
2022/01/23 12:25:30;;;;;;;11.20;8.70;;;;;;;6.07;98.99;102707.38;4988761;28;20297;-71
2022/01/23 12:28:25;;;;;;;8.60;5.93;;;;;;;6.11;99.05;102694.97;4981090;28;20234;-72
2022/01/23 12:30:56;;;;;;;8.50;6.50;;;;;;;6.14;99.45;102703.75;4986920;28;20570;-71
2022/01/23 12:33:46;;;;;;;6.83;4.97;;;;;;;6.18;99.23;102704.59;4979404;28;20290;-71
2022/01/23 12:36:26;;;;;;;8.50;5.63;;;;;;;6.21;99.44;102697.50;4988582;28;20310;-72
2022/01/23 12:38:54;;;;;;;7.10;4.80;;;;;;;6.24;99.62;102705.41;4993065;28;20231;-71
2022/01/23 12:41:33;;;;;;;5.60;4.50;;;;;;;6.25;99.41;102701.88;4999805;28;20214;-72
2022/01/23 12:44:03;;;;;;;6.47;3.93;;;;;;;6.27;99.25;102707.13;4997689;28;20226;-72
2022/01/23 12:46:37;;;;;;;6.10;5.00;;;;;;;6.27;98.85;102707.13;5003677;28;20692;-72
2022/01/23 12:49:19;;;;;;;5.83;4.23;;;;;;;6.30;99.29;102711.50;4996307;28;20237;-72
2022/01/23 12:51:47;;;;;;;6.10;4.43;;;;;;;6.30;99.18;102703.56;4982504;28;20226;-71
2022/01/23 12:54:29;;;;;;;6.40;4.53;;;;;;;6.30;98.97;102701.78;4999889;28;20230;-72
2022/01/23 12:57:05;;;;;;;8.07;4.93;;;;;;;6.32;98.96;102704.41;4995682;28;20208;-72
2022/01/23 12:59:34;;;;;;;7.67;5.47;;;;;;;6.33;98.88;102704.41;4981086;28;20703;-72
2022/01/23 13:02:07;;;;;;;6.37;4.40;;;;;;;6.35;98.99;102694.69;4986464;28;20692;-72
2022/01/23 13:04:38;;;;;;;5.67;3.97;;;;;;;6.37;98.68;102694.66;4992661;28;20200;-72
2022/01/23 13:07:17;;;;;;;6.67;4.97;;;;;;;6.39;98.82;102695.53;4977514;28;20222;-71
2022/01/23 13:09:51;;;;;;;7.37;4.60;;;;;;;6.40;98.85;102686.69;4980298;28;20215;-70
2022/01/23 13:12:31;;;;;;;6.47;4.53;;;;;;;6.40;98.88;102676.97;4977966;28;20292;-71
2022/01/23 13:15:14;;;;;;;5.40;4.10;;;;;;;6.42;98.32;102676.94;4978860;28;20208;-72
2022/01/23 13:17:53;;;;;;;5.27;3.87;;;;;;;6.44;98.70;102681.34;5012369;23;20231;-69
2022/01/23 13:31:47;;;;;;;6.33;4.30;;;;;;;6.50;98.19;102681.22;4975742;28;20203;-69
2022/01/23 13:34:27;;;;;;;5.73;4.63;;;;;;;6.52;98.12;102697.97;4995489;28;20207;-70
2022/01/23 13:36:56;;;;;;;7.13;4.50;;;;;;;6.52;97.61;102690.03;4993496;28;20203;-69
2022/01/23 13:39:24;;;;;;;4.87;4.37;;;;;;;6.54;97.95;102695.31;4997275;28;20246;-69
2022/01/23 13:42:00;;;;;;;5.13;4.33;;;;;;;6.55;97.83;102697.06;4995759;28;20203;-69
2022/01/23 13:53:11;;;;;;;5.93;4.53;;;;;;;6.57;97.46;102697.91;4965208;28;20278;-69
2022/01/23 13:58:34;;;;;;;5.87;4.63;;;;;;;6.57;97.77;102701.44;4996011;28;20242;-69
2022/01/23 14:01:15;;;;;;;6.77;4.60;;;;;;;6.58;97.39;102703.19;5001201;28;20296;-69
2022/01/23 14:03:43;;;;;;;5.30;4.00;;;;;;;6.58;97.77;102694.38;4998205;28;20305;-69
2022/01/23 14:06:12;;;;;;;6.13;3.87;;;;;;;6.57;97.32;102698.78;5001084;28;20207;-69
2022/01/23 14:08:38;;;;;;;4.33;3.93;;;;;;;6.56;97.70;102697.03;4998640;28;20233;-69
2022/01/23 14:11:05;;;;;;;4.60;4.20;;;;;;;6.55;97.02;102689.13;5002330;28;20215;-69
2022/01/23 14:13:32;;;;;;;5.80;4.10;;;;;;;6.54;96.89;102690.00;5000695;28;20294;-69
2022/01/23 14:15:58;;;;;;;4.63;3.50;;;;;;;6.53;97.36;102699.72;5000561;28;20207;-69
2022/01/23 14:18:27;;;;;;;4.63;3.70;;;;;;;6.52;97.16;102692.66;5006942;28;20223;-69
2022/01/23 14:20:59;;;;;;;5.90;4.07;;;;;;;6.50;97.19;102690.94;5004260;28;20226;-69
2022/01/23 14:23:29;;;;;;;3.90;3.53;;;;;;;6.50;96.97;102690.94;5004935;28;20199;-69